createdAt,value
2022-11-17T09:24:05.931Z,98485.88
2022-11-17T09:26:11.564Z,98485.88
2022-11-17T09:28:13.859Z,98576.56
2022-11-17T09:30:21.885Z,98585.28
2022-11-17T09:32:24.374Z,98610.44
2022-11-17T09:34:27.624Z,98607.22
2022-11-17T09:36:29.917Z,98610.12
2022-11-17T09:38:32.672Z,98619.38
2022-11-17T09:40:37.945Z,98630.53
2022-11-17T09:42:41.075Z,98633.09
2022-11-17T09:45:19.742Z,98644.63
2022-11-17T09:47:32.487Z,98647.00
2022-11-17T09:49:58.344Z,98653.72
2022-11-17T09:52:10.903Z,98654.84
2022-11-17T09:54:27.324Z,98656.38
2022-11-17T09:56:30.848Z,98661.03
2022-11-17T09:58:37.948Z,98668.19
2022-11-17T10:00:43.550Z,98685.69
2022-11-17T10:02:46.350Z,98693.53
2022-11-17T10:04:48.689Z,98709.25
2022-11-17T10:06:51.272Z,98716.50
2022-11-17T10:09:25.779Z,98710.75
2022-11-17T10:11:37.492Z,98716.50
2022-11-17T10:13:39.961Z,98714.28
2022-11-17T10:15:47.696Z,98723.19
2022-11-17T10:17:50.422Z,98731.28
2022-11-17T10:19:52.760Z,98736.47
2022-11-17T10:22:01.440Z,98732.91
2022-11-17T10:24:03.891Z,98737.78
2022-11-17T10:26:12.127Z,98734.47
2022-11-17T10:28:29.933Z,98732.12
2022-11-17T10:30:32.385Z,98733.97
2022-11-17T10:32:37.164Z,98732.81
2022-11-17T10:34:41.653Z,98727.75
2022-11-17T10:36:48.461Z,98741.91
2022-11-17T10:38:56.144Z,98748.88
2022-11-17T10:41:03.097Z,98762.62
2022-11-17T10:43:14.444Z,98767.25
2022-11-17T10:45:18.122Z,98771.69
2022-11-17T10:47:40.507Z,98792.19
2022-11-17T10:49:43.107Z,98786.88
2022-11-17T10:52:07.382Z,98791.41
2022-11-17T10:54:15.566Z,98802.75
2022-11-17T10:56:25.019Z,98821.28
2022-11-17T10:58:30.448Z,98829.06
2022-11-17T11:00:36.006Z,98829.78
2022-11-17T11:02:39.495Z,98828.94
2022-11-17T11:04:41.730Z,98818.75
2022-11-17T11:06:44.232Z,98828.06
2022-11-17T11:09:17.021Z,98851.66
2022-11-17T11:11:34.862Z,98876.31
2022-11-17T11:13:52.230Z,98887.50
2022-11-17T11:15:54.616Z,98918.31
2022-11-17T11:17:57.220Z,98920.28
2022-11-17T11:20:00.087Z,98919.47
2022-11-17T11:22:18.310Z,98955.09
2022-11-17T11:24:32.362Z,98970.94
2022-11-17T11:26:48.196Z,98986.16
2022-11-17T11:29:12.508Z,98969.78
2022-11-17T11:31:39.880Z,98993.81
2022-11-17T11:33:50.887Z,98988.84
2022-11-17T11:36:27.614Z,98981.41
2022-11-17T11:39:07.077Z,98948.69
2022-11-17T11:41:31.965Z,98946.22
2022-11-17T11:43:48.288Z,98942.69
2022-11-17T11:46:09.459Z,98918.69
2022-11-17T11:48:15.123Z,98909.63
2022-11-17T11:50:29.813Z,98913.41
2022-11-17T11:52:37.402Z,98903.47
2022-11-17T11:54:51.250Z,98902.72
2022-11-17T11:56:53.800Z,98910.25
2022-11-17T11:59:02.905Z,98901.34
2022-11-17T12:01:08.248Z,98902.97
2022-11-17T12:03:25.820Z,98905.06
2022-11-17T12:06:29.291Z,98901.28
2022-11-17T12:08:43.013Z,98899.53
2022-11-17T12:10:53.295Z,98903.72
2022-11-17T12:12:55.969Z,98926.13
2022-11-17T12:15:13.738Z,98937.62
2022-11-17T12:17:23.583Z,98939.06
2022-11-17T12:19:44.191Z,98932.00
2022-11-17T12:21:54.438Z,98930.94
2022-11-17T12:24:10.984Z,98925.75
2022-11-17T12:26:26.379Z,98921.59
2022-11-17T12:28:36.323Z,98911.44
2022-11-17T12:30:58.814Z,98901.06
2022-11-17T12:33:04.730Z,98913.09
2022-11-17T12:35:29.917Z,98918.87
2022-11-17T12:37:32.355Z,98924.22
2022-11-17T12:40:08.937Z,98903.81
2022-11-17T12:42:11.502Z,98903.47
2022-11-17T12:44:32.027Z,98905.31
2022-11-17T12:46:34.462Z,98921.31
2022-11-17T12:48:39.430Z,98943.06
2022-11-17T12:50:56.639Z,98987.03
2022-11-17T12:53:13.471Z,99012.03
2022-11-17T12:55:42.648Z,99010.47
2022-11-17T12:57:50.212Z,98981.59
2022-11-17T13:00:01.448Z,98953.41
2022-11-17T13:02:16.694Z,98943.38
2022-11-17T13:04:24.839Z,98933.13
2022-11-17T13:06:36.380Z,98923.28
2022-11-17T13:08:39.418Z,98921.78
2022-11-17T13:10:41.888Z,98925.00
2022-11-17T13:12:44.100Z,98923.94
2022-11-17T13:15:04.675Z,98914.91
2022-11-17T13:17:11.448Z,98928.19
2022-11-17T13:19:35.915Z,98934.22
2022-11-17T13:21:38.495Z,98936.25
2022-11-17T13:23:44.746Z,98936.41
2022-11-17T13:25:47.189Z,98930.44
2022-11-17T13:27:55.947Z,98927.09
2022-11-17T13:30:27.842Z,98926.75
2022-11-17T13:32:30.675Z,98933.06
2022-11-17T13:34:33.338Z,98943.28
2022-11-17T13:36:36.131Z,98946.72
2022-11-17T13:38:49.489Z,98941.75
2022-11-17T13:40:53.558Z,98938.28
2022-11-17T13:42:56.682Z,98938.78
2022-11-17T13:45:02.715Z,98940.16
2022-11-17T13:47:27.365Z,98946.50
2022-11-17T13:49:32.252Z,98926.75
2022-11-17T13:51:39.157Z,98927.59
2022-11-17T13:53:44.954Z,98914.41
2022-11-17T13:55:47.516Z,98908.25
2022-11-17T13:57:57.303Z,98908.00
2022-11-17T14:00:01.158Z,98898.97
2022-11-17T14:02:24.107Z,98888.44
2022-11-17T14:04:26.977Z,98882.22
2022-11-17T14:06:54.239Z,98882.31
2022-11-17T14:09:05.176Z,98886.97
2022-11-17T14:11:16.403Z,98895.53
2022-11-17T14:13:20.419Z,98880.31
2022-11-17T14:15:28.554Z,98886.25
2022-11-17T14:17:31.133Z,98879.84
2022-11-17T14:19:34.134Z,98873.06
2022-11-17T14:21:36.548Z,98861.22
2022-11-17T14:23:40.244Z,98849.66
2022-11-17T14:25:44.834Z,98856.19
2022-11-17T14:27:52.102Z,98844.09
2022-11-17T14:29:55.842Z,98841.84
2022-11-17T14:31:58.033Z,98836.84
2022-11-17T14:34:00.365Z,98841.97
2022-11-17T14:36:03.118Z,98845.16
2022-11-17T14:38:05.377Z,98851.00
2022-11-17T14:40:15.912Z,98849.78
2022-11-17T14:42:18.566Z,98852.41
2022-11-17T14:44:21.943Z,98845.75
2022-11-17T14:46:26.488Z,98857.87
2022-11-17T14:48:29.012Z,98856.16
2022-11-17T14:50:31.860Z,98868.41
2022-11-17T14:52:34.052Z,98861.06
2022-11-17T14:54:36.564Z,98857.03
2022-11-17T14:56:39.171Z,98853.09
2022-11-17T14:58:41.912Z,98855.38
2022-11-17T15:00:44.446Z,98853.03
2022-11-17T15:02:47.085Z,98844.31
2022-11-17T15:04:50.861Z,98823.62
2022-11-17T15:06:53.826Z,98815.81
2022-11-17T15:08:58.881Z,98816.41
2022-11-17T15:11:01.130Z,98813.09
2022-11-17T15:13:03.585Z,98808.09
2022-11-17T15:15:06.408Z,98812.59
2022-11-17T15:17:13.912Z,98804.41
2022-11-17T15:19:17.234Z,98804.03
2022-11-17T15:21:19.631Z,98798.69
2022-11-17T15:23:47.556Z,98768.31
2022-11-17T15:25:50.186Z,98798.72
2022-11-17T15:27:54.185Z,98811.31
2022-11-17T15:29:56.474Z,98815.31
2022-11-17T15:31:58.972Z,98813.09
2022-11-17T15:34:01.320Z,98821.63
2022-11-17T15:36:05.410Z,98818.59
2022-11-17T15:38:07.917Z,98818.34
2022-11-17T15:40:12.117Z,98819.50
2022-11-17T15:42:17.387Z,98817.44
2022-11-17T15:44:19.954Z,98808.69
2022-11-17T15:46:22.496Z,98806.88
2022-11-17T15:48:24.773Z,98796.22
2022-11-17T15:50:27.443Z,98788.09
2022-11-17T15:52:56.483Z,98776.50
2022-11-17T15:54:52.937Z,98779.47
2022-11-17T15:56:55.739Z,98780.75
2022-11-17T15:59:03.128Z,98775.53
2022-11-17T16:01:15.378Z,98765.81
2022-11-17T16:03:18.108Z,98756.44
2022-11-17T16:05:20.683Z,98761.56
2022-11-17T16:07:23.063Z,98770.34
2022-11-17T16:09:25.746Z,98758.69
2022-11-17T16:11:28.381Z,98760.03
2022-11-17T16:13:30.948Z,98763.72
2022-11-17T16:15:33.402Z,98762.38
2022-11-17T16:17:35.835Z,98755.25
2022-11-17T16:19:38.192Z,98750.66
2022-11-17T16:21:41.259Z,98764.06
2022-11-17T16:23:57.776Z,98760.53
2022-11-17T16:26:01.646Z,98758.47
2022-11-17T16:28:04.193Z,98752.22
2022-11-17T16:30:06.831Z,98750.63
2022-11-17T16:32:09.058Z,98738.63
2022-11-17T16:34:14.178Z,98738.41
2022-11-17T16:36:21.876Z,98737.47
2022-11-17T16:38:24.151Z,98731.28
2022-11-17T16:40:26.671Z,98728.69
2022-11-17T16:42:29.327Z,98735.34
2022-11-17T16:44:31.613Z,98750.28
2022-11-17T16:46:34.159Z,98756.81
2022-11-17T16:48:36.377Z,98761.31
2022-11-17T16:50:41.308Z,98762.16
2022-11-17T16:52:44.376Z,98768.53
2022-11-17T16:54:47.020Z,98756.09
2022-11-17T16:56:49.564Z,98750.28
2022-11-17T16:58:53.215Z,98748.12
2022-11-17T17:00:55.438Z,98752.44
2022-11-17T17:02:57.945Z,98757.50
2022-11-17T17:05:00.599Z,98765.22
2022-11-17T17:07:03.127Z,98771.31
2022-11-17T17:09:07.663Z,98758.81
2022-11-17T17:11:13.234Z,98760.34
2022-11-17T17:13:15.620Z,98742.87
2022-11-17T17:15:18.105Z,98738.69
2022-11-17T17:17:20.983Z,98734.47
2022-11-17T17:19:24.727Z,98735.84
2022-11-17T17:21:28.966Z,98728.50
2022-11-17T17:23:32.098Z,98716.62
2022-11-17T17:25:34.354Z,98709.75
2022-11-17T17:27:36.876Z,98695.50
2022-11-17T17:29:40.196Z,98693.25
2022-11-17T17:31:42.924Z,98692.00
2022-11-17T17:33:45.839Z,98690.94
2022-11-17T17:35:48.419Z,98697.22
2022-11-17T17:37:50.958Z,98707.28
2022-11-17T17:39:53.461Z,98699.34
2022-11-17T17:41:56.125Z,98695.81
2022-11-17T17:44:01.170Z,98699.84
2022-11-17T17:46:06.035Z,98695.69
2022-11-17T17:48:08.919Z,98704.91
2022-11-17T17:50:11.694Z,98696.84
2022-11-17T17:52:14.603Z,98687.84
2022-11-17T17:54:20.524Z,98686.22
2022-11-17T17:56:23.986Z,98684.66
2022-11-17T17:58:26.475Z,98686.09
2022-11-17T18:00:29.486Z,98687.94
2022-11-17T18:02:34.727Z,98693.50
2022-11-17T18:04:37.150Z,98685.56
2022-11-17T18:06:41.998Z,98689.84
2022-11-17T18:08:47.237Z,98692.84
2022-11-17T18:10:50.004Z,98694.41
2022-11-17T18:12:52.677Z,98694.84
2022-11-17T18:14:56.573Z,98707.88
2022-11-17T18:16:59.326Z,98699.38
2022-11-17T18:19:05.148Z,98696.97
2022-11-17T18:21:14.328Z,98694.28
2022-11-17T18:23:16.824Z,98692.84
2022-11-17T18:25:19.582Z,98692.34
2022-11-17T18:27:22.403Z,98678.94
2022-11-17T18:29:26.272Z,98680.19
2022-11-17T18:31:31.777Z,98686.09
2022-11-17T18:33:36.699Z,98686.22
2022-11-17T18:35:39.903Z,98678.84
2022-11-17T18:37:42.611Z,98685.84
2022-11-17T18:39:45.532Z,98684.75
2022-11-17T18:41:48.551Z,98684.16
2022-11-17T18:43:51.347Z,98676.13
2022-11-17T18:45:54.416Z,98668.66
2022-11-17T18:47:56.688Z,98662.59
2022-11-17T18:49:59.364Z,98666.87
2022-11-17T18:52:02.456Z,98665.69
2022-11-17T18:54:05.407Z,98658.00
2022-11-17T18:56:11.006Z,98661.31
2022-11-17T18:58:14.059Z,98660.59
2022-11-17T19:00:18.894Z,98672.00
2022-11-17T19:02:22.002Z,98684.06
2022-11-17T19:04:24.995Z,98683.97
2022-11-17T19:06:28.137Z,98682.53
2022-11-17T19:08:32.090Z,98678.59
2022-11-17T19:10:35.216Z,98673.72
2022-11-17T19:12:38.145Z,98678.47
2022-11-17T19:14:42.342Z,98678.22
2022-11-17T19:16:45.450Z,98673.13
2022-11-17T19:18:49.772Z,98671.12
2022-11-17T19:20:52.517Z,98667.44
2022-11-17T19:22:58.438Z,98668.34
2022-11-17T19:25:01.267Z,98657.84
2022-11-17T19:27:04.363Z,98656.75
2022-11-17T19:29:16.258Z,98660.66
2022-11-17T19:31:20.920Z,98646.69
2022-11-17T19:33:23.896Z,98652.25
2022-11-17T19:35:26.918Z,98644.19
2022-11-17T19:37:32.070Z,98642.88
2022-11-17T19:39:36.459Z,98645.28
2022-11-17T19:41:40.383Z,98652.25
2022-11-17T19:43:45.445Z,98649.66
2022-11-17T19:45:48.435Z,98642.25
2022-11-17T19:47:51.574Z,98654.47
2022-11-17T19:49:54.587Z,98650.66
2022-11-17T19:51:59.729Z,98648.88
2022-11-17T19:54:04.407Z,98632.66
2022-11-17T19:56:07.302Z,98617.84
2022-11-17T19:58:10.085Z,98621.28
2022-11-17T20:00:13.745Z,98623.88
2022-11-17T20:02:16.676Z,98628.63
2022-11-17T20:04:19.844Z,98632.44
2022-11-17T20:06:30.428Z,98634.72
2022-11-17T20:08:33.553Z,98626.53
2022-11-17T20:10:36.543Z,98631.84
2022-11-17T20:12:39.273Z,98634.00
2022-11-17T20:14:42.226Z,98623.56
2022-11-17T20:16:45.110Z,98627.81
2022-11-17T20:18:56.083Z,98636.13
2022-11-17T20:20:59.339Z,98636.59
2022-11-17T20:23:02.131Z,98649.78
2022-11-17T20:25:05.838Z,98632.56
2022-11-17T20:27:08.712Z,98602.47
2022-11-17T20:29:11.345Z,98591.56
2022-11-17T20:31:20.365Z,98625.47
2022-11-17T20:33:23.020Z,98643.84
2022-11-17T20:35:29.016Z,98653.31
2022-11-17T20:37:31.708Z,98650.19
2022-11-17T20:39:34.332Z,98651.47
2022-11-17T20:41:37.705Z,98652.78
2022-11-17T20:43:40.219Z,98650.31
2022-11-17T20:45:43.192Z,98655.50
2022-11-17T20:47:46.291Z,98653.09
2022-11-17T20:49:49.253Z,98650.00
2022-11-17T20:51:51.800Z,98653.81
2022-11-17T20:53:54.626Z,98657.63
2022-11-17T20:56:01.884Z,98659.16
2022-11-17T20:58:05.857Z,98652.94
2022-11-17T21:00:09.036Z,98656.78
2022-11-17T21:02:12.789Z,98647.09
2022-11-17T21:04:15.397Z,98641.81
2022-11-17T21:06:19.914Z,98648.62
2022-11-17T21:08:26.611Z,98642.78
2022-11-17T21:10:29.107Z,98628.97
2022-11-17T21:12:33.283Z,98649.47
2022-11-17T21:14:35.955Z,98645.41
2022-11-17T21:16:41.688Z,98633.34
2022-11-17T21:18:48.253Z,98636.03
2022-11-17T21:20:50.580Z,98629.28
2022-11-17T21:22:54.074Z,98638.78
2022-11-17T21:24:56.688Z,98637.97
2022-11-17T21:26:58.970Z,98636.97
2022-11-17T21:29:06.382Z,98636.06
2022-11-17T21:31:14.377Z,98635.59
2022-11-17T21:33:16.604Z,98623.03
2022-11-17T21:35:19.185Z,98633.59
2022-11-17T21:37:21.686Z,98640.78
2022-11-17T21:39:24.621Z,98655.81
2022-11-17T21:41:30.187Z,98654.28
2022-11-17T21:43:35.517Z,98658.41
2022-11-17T21:45:38.089Z,98661.00
2022-11-17T21:47:40.666Z,98654.66
2022-11-17T21:49:42.885Z,98645.66
2022-11-17T21:51:45.549Z,98664.72
2022-11-17T21:53:52.766Z,98651.37
2022-11-17T21:56:06.721Z,98635.91
2022-11-17T21:58:09.011Z,98635.44
2022-11-17T22:00:12.279Z,98633.69
2022-11-17T22:02:14.855Z,98625.28
2022-11-17T22:04:19.149Z,98628.63
2022-11-17T22:06:23.458Z,98640.25
2022-11-17T22:08:25.995Z,98636.50
2022-11-17T22:10:28.220Z,98643.28
2022-11-17T22:12:30.500Z,98644.66
2022-11-17T22:14:33.070Z,98649.88
2022-11-17T22:16:38.118Z,98639.88
2022-11-17T22:18:41.415Z,98628.87
2022-11-17T22:20:49.771Z,98631.50
2022-11-17T22:22:54.187Z,98643.63
2022-11-17T22:24:56.429Z,98645.84
2022-11-17T22:26:59.040Z,98640.12
2022-11-17T22:29:01.441Z,98634.44
2022-11-17T22:31:09.192Z,98629.94
2022-11-17T22:33:11.722Z,98631.16
2022-11-17T22:35:13.948Z,98619.06
2022-11-17T22:37:16.183Z,98611.69
2022-11-17T22:39:18.934Z,98619.72
2022-11-17T22:41:23.110Z,98615.63
2022-11-17T22:43:25.430Z,98611.97
2022-11-17T22:45:28.005Z,98612.16
2022-11-17T22:47:31.396Z,98611.91
2022-11-17T22:49:33.556Z,98622.81
2022-11-17T22:51:54.679Z,98618.09
2022-11-17T22:53:56.855Z,98610.50
2022-11-17T22:56:06.327Z,98599.37
2022-11-17T22:58:09.356Z,98597.63
2022-11-17T23:00:12.135Z,98609.06
2022-11-17T23:02:14.345Z,98611.41
2022-11-17T23:04:17.115Z,98599.00
2022-11-17T23:06:19.347Z,98594.69
2022-11-17T23:08:21.581Z,98591.03
2022-11-17T23:10:24.412Z,98599.25
2022-11-17T23:12:26.673Z,98595.03
2022-11-17T23:14:29.083Z,98595.81
